createdAt,value
2024-04-22T00:00:57.899Z,100.00
2024-04-22T00:03:27.701Z,100.00
2024-04-22T00:05:57.950Z,100.00
2024-04-22T00:08:25.169Z,100.00
2024-04-22T00:11:04.898Z,100.00
2024-04-22T00:13:33.668Z,100.00
2024-04-22T00:16:03.833Z,100.00
2024-04-22T00:18:33.771Z,100.00
2024-04-22T00:21:03.536Z,100.00
2024-04-22T00:23:30.736Z,100.00
2024-04-22T00:26:02.092Z,100.00
2024-04-22T00:28:29.343Z,100.00
2024-04-22T00:30:59.081Z,100.00
2024-04-22T00:33:26.295Z,100.00
2024-04-22T00:36:02.442Z,100.00
2024-04-22T00:38:30.834Z,100.00
2024-04-22T00:41:01.142Z,100.00
2024-04-22T00:43:28.389Z,100.00
2024-04-22T00:45:59.168Z,100.00
2024-04-22T00:48:26.719Z,100.00
2024-04-22T00:50:58.292Z,100.00
2024-04-22T00:53:28.606Z,100.00
2024-04-22T00:56:01.968Z,100.00
2024-04-22T00:58:30.656Z,100.00
2024-04-22T01:01:00.903Z,100.00
2024-04-22T01:03:28.824Z,100.00
2024-04-22T01:05:59.155Z,100.00
2024-04-22T01:08:28.949Z,100.00
2024-04-22T01:10:59.062Z,100.00
2024-04-22T01:13:26.340Z,100.00
2024-04-22T01:15:56.152Z,100.00
2024-04-22T01:18:23.285Z,100.00
2024-04-22T01:20:53.118Z,100.00
2024-04-22T01:23:22.910Z,100.00
2024-04-22T01:25:56.920Z,100.00
2024-04-22T01:28:24.190Z,100.00
2024-04-22T01:30:53.989Z,100.00
2024-04-22T01:33:21.284Z,100.00
2024-04-22T01:35:51.170Z,100.00
2024-04-22T01:38:18.332Z,100.00
2024-04-22T01:40:50.821Z,100.00
2024-04-22T01:43:18.058Z,100.00
2024-04-22T01:45:47.857Z,100.00
2024-04-22T01:48:15.057Z,100.00
2024-04-22T01:50:49.250Z,100.00
2024-04-22T01:53:16.407Z,100.00
2024-04-22T01:56:10.089Z,100.00
2024-04-22T01:58:37.370Z,100.00
2024-04-22T02:01:08.032Z,100.00
2024-04-22T02:03:35.247Z,100.00
2024-04-22T02:06:05.073Z,100.00
2024-04-22T02:08:32.201Z,100.00
2024-04-22T02:11:04.850Z,100.00
2024-04-22T02:13:32.136Z,100.00
2024-04-22T02:16:02.082Z,100.00
2024-04-22T02:18:29.754Z,100.00
2024-04-22T02:20:59.505Z,100.00
2024-04-22T02:23:26.633Z,100.00
2024-04-22T02:25:56.386Z,100.00
2024-04-22T02:28:26.184Z,100.00
2024-04-22T02:30:56.289Z,100.00
2024-04-22T02:33:23.912Z,100.00
2024-04-22T02:35:53.802Z,100.00
2024-04-22T02:38:21.041Z,100.00
2024-04-22T02:40:51.436Z,100.00
2024-04-22T02:43:18.612Z,100.00
2024-04-22T02:45:50.987Z,100.00
2024-04-22T02:48:18.233Z,100.00
2024-04-22T02:50:48.078Z,100.00
2024-04-22T02:53:15.350Z,100.00
2024-04-22T02:56:07.075Z,100.00
2024-04-22T02:58:34.267Z,100.00
2024-04-22T03:01:09.160Z,100.00
2024-04-22T03:03:36.402Z,100.00
2024-04-22T03:06:06.401Z,100.00
2024-04-22T03:08:33.575Z,100.00
2024-04-22T03:11:03.914Z,100.00
2024-04-22T03:13:31.207Z,100.00
2024-04-22T03:16:01.038Z,100.00
2024-04-22T03:18:30.802Z,100.00
2024-04-22T03:21:00.567Z,100.00
2024-04-22T03:23:29.198Z,100.00
2024-04-22T03:25:58.981Z,100.00
2024-04-22T03:28:26.117Z,100.00
2024-04-22T03:30:55.942Z,100.00
2024-04-22T03:33:23.192Z,100.00
2024-04-22T03:35:55.610Z,100.00
2024-04-22T03:38:25.338Z,100.00
2024-04-22T03:40:55.128Z,100.00
2024-04-22T03:43:25.004Z,100.00
2024-04-22T03:46:07.043Z,100.00
2024-04-22T03:48:52.477Z,100.00
2024-04-22T03:51:24.869Z,100.00
2024-04-22T03:53:54.661Z,100.00
2024-04-22T03:56:24.501Z,100.00
2024-04-22T03:58:54.260Z,100.00
2024-04-22T04:01:22.729Z,100.00
2024-04-22T04:03:52.605Z,100.00
2024-04-22T04:06:25.126Z,100.00
2024-04-22T04:08:52.292Z,100.00
2024-04-22T04:11:27.365Z,100.00
2024-04-22T04:13:54.791Z,100.00
2024-04-22T04:16:25.405Z,100.00
2024-04-22T04:18:52.658Z,100.00
2024-04-22T04:21:25.123Z,100.00
2024-04-22T04:23:52.235Z,100.00
2024-04-22T04:26:22.085Z,100.00
2024-04-22T04:28:49.501Z,100.00
2024-04-22T04:31:20.328Z,100.00
2024-04-22T04:33:47.486Z,100.00
2024-04-22T04:36:17.292Z,100.00
2024-04-22T04:38:47.047Z,100.00
2024-04-22T04:41:17.071Z,100.00
2024-04-22T04:43:44.302Z,100.00
2024-04-22T04:46:14.122Z,100.00
2024-04-22T04:48:41.399Z,100.00
2024-04-22T04:51:11.178Z,100.00
2024-04-22T04:53:38.300Z,100.00
2024-04-22T04:56:11.032Z,100.00
2024-04-22T04:58:38.272Z,100.00
2024-04-22T05:01:08.430Z,100.00
2024-04-22T05:03:35.683Z,100.00
2024-04-22T05:06:06.343Z,100.00
2024-04-22T05:08:33.512Z,100.00
2024-04-22T05:11:07.264Z,100.00
2024-04-22T05:13:37.077Z,100.00
2024-04-22T05:16:07.275Z,100.00
2024-04-22T05:18:34.572Z,100.00
2024-04-22T05:21:04.384Z,100.00
2024-04-22T05:23:31.578Z,100.00
2024-04-22T05:26:01.426Z,100.00
2024-04-22T05:28:28.834Z,100.00
2024-04-22T05:31:01.311Z,100.00
2024-04-22T05:33:46.903Z,100.00
2024-04-22T05:36:16.716Z,100.00
2024-04-22T05:38:47.871Z,100.00
2024-04-22T05:41:15.165Z,100.00
2024-04-22T05:43:45.032Z,100.00
2024-04-22T05:46:17.530Z,100.00
2024-04-22T05:48:47.301Z,100.00
2024-04-22T05:51:17.075Z,100.00
2024-04-22T05:53:44.550Z,100.00
2024-04-22T05:56:14.448Z,100.00
2024-04-22T05:58:42.154Z,100.00
2024-04-22T06:01:12.150Z,100.00
2024-04-22T06:03:41.970Z,100.00
2024-04-22T06:06:11.790Z,100.00
2024-04-22T06:08:38.926Z,100.00
2024-04-22T06:11:09.072Z,100.00
2024-04-22T06:13:36.302Z,100.00
2024-04-22T06:16:06.404Z,100.00
2024-04-22T06:18:33.564Z,100.00
2024-04-22T06:21:06.129Z,100.00
2024-04-22T06:23:33.827Z,100.00
2024-04-22T06:26:06.893Z,100.00
2024-04-22T06:28:34.265Z,100.00
2024-04-22T06:31:04.132Z,100.00
2024-04-22T06:33:31.654Z,100.00
2024-04-22T06:36:01.437Z,100.00
2024-04-22T06:38:32.291Z,100.00
2024-04-22T06:41:02.126Z,100.00
2024-04-22T06:43:29.334Z,100.00
2024-04-22T06:45:59.118Z,100.00
2024-04-22T06:48:26.310Z,100.00
2024-04-22T06:50:59.980Z,100.00
2024-04-22T06:53:28.651Z,100.00
2024-04-22T06:56:06.962Z,100.00
2024-04-22T06:58:34.180Z,100.00
2024-04-22T07:01:04.024Z,100.00
2024-04-22T07:03:31.242Z,100.00
2024-04-22T07:06:01.424Z,100.00
2024-04-22T07:08:28.544Z,100.00
2024-04-22T07:11:01.012Z,100.00
2024-04-22T07:13:28.155Z,100.00
2024-04-22T07:15:57.978Z,100.00
2024-04-22T07:18:25.122Z,100.00
2024-04-22T07:20:54.942Z,100.00
2024-04-22T07:23:22.121Z,100.00
2024-04-22T07:25:51.958Z,100.00
2024-04-22T07:28:22.488Z,100.00
2024-04-22T07:30:52.822Z,100.00
2024-04-22T07:33:20.605Z,100.00
2024-04-22T07:35:52.312Z,100.00
2024-04-22T07:38:24.545Z,100.00
2024-04-22T07:40:55.218Z,100.00
2024-04-22T07:43:25.055Z,100.00
2024-04-22T07:45:54.961Z,100.00
2024-04-22T07:48:22.291Z,100.00
2024-04-22T07:50:52.090Z,100.00
2024-04-22T07:53:19.737Z,100.00
2024-04-22T07:56:05.811Z,100.00
2024-04-22T07:58:36.492Z,100.00
2024-04-22T08:01:06.800Z,100.00
2024-04-22T08:03:34.481Z,100.00
2024-04-22T08:06:08.527Z,100.00
2024-04-22T08:08:39.698Z,100.00
2024-04-22T08:11:09.607Z,100.00
2024-04-22T08:13:39.580Z,100.00
2024-04-22T08:16:09.494Z,100.00
2024-04-22T08:18:36.680Z,100.00
2024-04-22T08:21:08.497Z,100.00
2024-04-22T08:23:37.720Z,100.00
2024-04-22T08:26:07.933Z,100.00
2024-04-22T08:28:35.135Z,100.00
2024-04-22T08:31:09.213Z,100.00
2024-04-22T08:33:36.552Z,100.00
2024-04-22T08:36:08.662Z,100.00
2024-04-22T08:38:37.498Z,100.00
2024-04-22T08:41:11.970Z,100.00
2024-04-22T08:43:39.196Z,100.00
2024-04-22T08:46:11.802Z,100.00
2024-04-22T08:48:39.901Z,100.00
2024-04-22T08:51:10.656Z,100.00
2024-04-22T08:53:37.830Z,100.00
2024-04-22T08:56:09.799Z,100.00
2024-04-22T08:58:37.377Z,100.00
2024-04-22T09:01:11.781Z,100.00
2024-04-22T09:03:39.077Z,100.00
2024-04-22T09:06:09.153Z,100.00
2024-04-22T09:08:43.163Z,100.00
2024-04-22T09:13:48.533Z,100.00
2024-04-22T09:16:21.495Z,100.00
2024-04-22T09:18:49.026Z,100.00
2024-04-22T09:21:20.877Z,100.00
2024-04-22T09:23:48.171Z,100.00
2024-04-22T09:26:18.324Z,100.00
2024-04-22T09:28:49.015Z,100.00
2024-04-22T09:31:22.796Z,100.00
2024-04-22T09:33:50.518Z,100.00
2024-04-22T09:36:21.374Z,100.00
2024-04-22T09:38:51.183Z,100.00
2024-04-22T09:41:23.247Z,100.00
2024-04-22T09:43:57.099Z,100.00
2024-04-22T09:46:34.705Z,100.00
2024-04-22T09:49:01.918Z,100.00
2024-04-22T09:51:32.922Z,100.00
2024-04-22T09:54:00.249Z,100.00
2024-04-22T09:56:34.492Z,100.00
2024-04-22T09:59:04.363Z,100.00
2024-04-22T10:01:37.163Z,100.00
2024-04-22T10:04:04.694Z,100.00
2024-04-22T10:06:35.963Z,100.00
2024-04-22T10:09:03.201Z,100.00
2024-04-22T10:11:34.786Z,100.00
2024-04-22T10:14:13.516Z,100.00
2024-04-22T10:16:57.143Z,100.00
2024-04-22T10:19:27.407Z,100.00
2024-04-22T10:21:59.875Z,100.00
2024-04-22T10:24:34.285Z,100.00
2024-04-22T10:27:09.800Z,100.00
2024-04-22T10:29:41.972Z,100.00
2024-04-22T10:32:11.833Z,100.00
2024-04-22T10:34:46.057Z,100.00
2024-04-22T10:37:13.860Z,100.00
2024-04-22T10:39:44.975Z,100.00
2024-04-22T10:42:12.841Z,100.00
2024-04-22T10:44:43.544Z,100.00
2024-04-22T10:47:13.739Z,100.00
2024-04-22T10:49:45.209Z,100.00
2024-04-22T10:52:12.467Z,100.00
2024-04-22T10:54:42.286Z,100.00
2024-04-22T10:57:09.733Z,100.00
2024-04-22T10:59:40.029Z,100.00
2024-04-22T11:02:08.759Z,100.00
2024-04-22T11:04:42.194Z,100.00
2024-04-22T11:07:09.468Z,100.00
2024-04-22T11:09:39.810Z,100.00
2024-04-22T11:12:08.392Z,100.00
2024-04-22T11:14:38.352Z,100.00
2024-04-22T11:17:05.841Z,99.48
2024-04-22T11:19:35.621Z,100.00
2024-04-22T11:22:07.079Z,98.34
2024-04-22T11:24:37.076Z,100.00
2024-04-22T11:27:04.886Z,96.17
2024-04-22T11:29:34.763Z,97.15
2024-04-22T11:32:02.573Z,91.18
2024-04-22T11:34:33.506Z,94.93
2024-04-22T11:37:02.774Z,93.07
2024-04-22T11:39:36.544Z,95.06
2024-04-22T11:42:03.760Z,94.39
2024-04-22T11:44:33.531Z,100.00
2024-04-22T11:47:00.878Z,96.00
2024-04-22T11:49:30.757Z,97.74
2024-04-22T11:51:57.977Z,94.44
2024-04-22T11:54:27.822Z,96.41
2024-04-22T11:56:57.590Z,95.94
2024-04-22T11:59:27.460Z,100.00
2024-04-22T12:01:54.750Z,92.79
2024-04-22T12:04:24.665Z,93.22
2024-04-22T12:06:51.895Z,99.54
2024-04-22T12:09:24.336Z,97.93
2024-04-22T12:11:51.576Z,98.65
2024-04-22T12:14:24.008Z,92.63
2024-04-22T12:16:51.546Z,96.53
2024-04-22T12:19:21.506Z,93.10
2024-04-22T12:21:48.740Z,94.07
2024-04-22T12:24:18.547Z,96.46
2024-04-22T12:26:45.723Z,95.11
2024-04-22T12:29:15.529Z,98.18
2024-04-22T12:31:45.394Z,96.67
2024-04-22T12:34:15.297Z,100.00
2024-04-22T12:36:42.881Z,100.00
2024-04-22T12:39:12.843Z,98.74
2024-04-22T12:41:40.132Z,99.51
2024-04-22T12:44:09.946Z,99.54
2024-04-22T12:46:57.825Z,94.54
2024-04-22T12:49:46.111Z,97.62
2024-04-22T12:52:18.808Z,94.31
2024-04-22T12:54:45.998Z,100.00
2024-04-22T12:57:15.943Z,98.41
2024-04-22T12:59:45.871Z,100.00
2024-04-22T13:02:16.603Z,95.23
2024-04-22T13:04:49.099Z,100.00
2024-04-22T13:07:18.978Z,97.52
2024-04-22T13:09:48.802Z,99.85
2024-04-22T13:12:16.011Z,96.65
2024-04-22T13:14:45.835Z,91.37
2024-04-22T13:17:15.679Z,90.06
2024-04-22T13:19:48.245Z,90.68
2024-04-22T13:22:15.473Z,89.08
2024-04-22T13:24:45.279Z,88.11
2024-04-22T13:27:12.459Z,83.89
2024-04-22T13:29:43.461Z,85.92
2024-04-22T13:32:16.279Z,89.36
2024-04-22T13:34:46.158Z,80.78
2024-04-22T13:37:16.013Z,88.01
2024-04-22T13:39:44.424Z,82.83
2024-04-22T13:42:14.211Z,78.92
2024-04-22T13:44:41.335Z,83.48
2024-04-22T13:47:11.124Z,84.29
2024-04-22T13:49:38.315Z,74.65
2024-04-22T13:52:10.999Z,80.13
2024-04-22T13:54:38.138Z,80.59
2024-04-22T13:57:08.288Z,86.61
2024-04-22T13:59:35.432Z,86.95
2024-04-22T14:02:05.420Z,80.13
2024-04-22T14:04:32.699Z,84.26
2024-04-22T14:07:05.709Z,83.38
2024-04-22T14:09:36.304Z,81.53
2024-04-22T14:12:06.291Z,79.21
2024-04-22T14:14:33.523Z,85.06
2024-04-22T14:17:05.453Z,86.76
2024-04-22T14:19:34.839Z,83.87
2024-04-22T14:22:04.607Z,80.53
2024-04-22T14:24:31.825Z,78.62
2024-04-22T14:27:04.359Z,80.23
2024-04-22T14:29:31.527Z,79.35
2024-04-22T14:32:01.287Z,77.98
2024-04-22T14:34:28.471Z,77.86
2024-04-22T14:36:58.240Z,79.46
2024-04-22T14:39:25.395Z,78.75
2024-04-22T14:41:55.125Z,84.91
2024-04-22T14:44:24.905Z,78.84
2024-04-22T14:46:54.716Z,73.89
2024-04-22T14:49:21.868Z,71.90
2024-04-22T14:51:51.643Z,77.62
2024-04-22T14:54:18.757Z,76.84
2024-04-22T14:56:48.565Z,76.13
2024-04-22T14:59:15.784Z,69.77
2024-04-22T15:01:48.247Z,72.61
2024-04-22T15:04:15.439Z,77.98
2024-04-22T15:06:46.336Z,76.00
2024-04-22T15:09:13.491Z,73.33
2024-04-22T15:11:43.316Z,76.14
2024-04-22T15:14:10.463Z,76.26
2024-04-22T15:16:40.262Z,77.07
2024-04-22T15:19:10.094Z,78.59
2024-04-22T15:21:39.954Z,75.19
2024-04-22T15:24:10.133Z,74.31
2024-04-22T15:26:39.917Z,69.90
2024-04-22T15:29:07.192Z,67.80
2024-04-22T15:31:37.028Z,67.30
2024-04-22T15:34:04.215Z,68.12
2024-04-22T15:36:36.674Z,65.08
2024-04-22T15:39:04.063Z,67.37
2024-04-22T15:41:34.231Z,67.78
2024-04-22T15:44:03.495Z,68.70
2024-04-22T15:46:33.342Z,69.40
2024-04-22T15:49:00.580Z,73.33
2024-04-22T15:51:30.360Z,71.56
2024-04-22T15:54:00.192Z,71.36
2024-04-22T15:56:29.982Z,73.38
2024-04-22T15:58:57.292Z,73.74
2024-04-22T16:01:27.739Z,75.41
2024-04-22T16:03:54.912Z,72.35
2024-04-22T16:06:24.707Z,72.65
2024-04-22T16:08:51.840Z,69.32
2024-04-22T16:11:24.254Z,70.98
2024-04-22T16:13:51.388Z,71.65
2024-04-22T16:16:21.352Z,71.66
2024-04-22T16:18:50.511Z,72.24
2024-04-22T16:21:20.349Z,70.71
2024-04-22T16:23:47.482Z,71.64
2024-04-22T16:26:19.217Z,70.65
2024-04-22T16:28:50.606Z,70.40
2024-04-22T16:31:21.717Z,70.96
2024-04-22T16:33:48.929Z,70.86
2024-04-22T16:36:18.711Z,69.90
2024-04-22T16:38:45.994Z,73.17
2024-04-22T16:41:15.776Z,74.33
2024-04-22T16:43:43.057Z,76.15
2024-04-22T16:46:15.457Z,76.65
2024-04-22T16:48:42.824Z,80.07
2024-04-22T16:51:12.742Z,79.71
2024-04-22T16:53:39.916Z,79.10
2024-04-22T16:56:09.997Z,80.55
2024-04-22T16:58:37.197Z,81.48
2024-04-22T17:01:07.490Z,78.28
2024-04-22T17:03:37.454Z,80.60
2024-04-22T17:06:07.334Z,82.46
2024-04-22T17:08:34.544Z,82.38
2024-04-22T17:11:07.668Z,82.90
2024-04-22T17:13:34.941Z,85.67
2024-04-22T17:16:04.865Z,86.65
2024-04-22T17:18:32.084Z,86.77
2024-04-22T17:21:04.593Z,89.29
2024-04-22T17:23:33.120Z,89.06
2024-04-22T17:26:03.065Z,90.41
2024-04-22T17:28:31.693Z,88.94
2024-04-22T17:31:01.479Z,89.12
2024-04-22T17:33:28.789Z,93.56
2024-04-22T17:35:58.675Z,93.45
2024-04-22T17:38:29.243Z,93.18
2024-04-22T17:41:00.285Z,92.15
2024-04-22T17:43:27.531Z,93.65
2024-04-22T17:46:04.581Z,92.34
2024-04-22T17:48:31.891Z,94.78
2024-04-22T17:51:02.294Z,91.78
2024-04-22T17:53:32.836Z,93.78
2024-04-22T17:56:02.793Z,94.51
2024-04-22T17:58:30.051Z,94.26
2024-04-22T18:00:59.907Z,95.87
2024-04-22T18:03:27.072Z,94.29
2024-04-22T18:05:56.899Z,94.68
2024-04-22T18:08:24.062Z,95.49
2024-04-22T18:10:57.722Z,96.13
2024-04-22T18:13:28.951Z,97.24
2024-04-22T18:15:59.233Z,99.59
2024-04-22T18:18:26.411Z,100.00
2024-04-22T18:20:56.296Z,98.97
2024-04-22T18:23:23.677Z,100.00
2024-04-22T18:26:02.182Z,100.00
2024-04-22T18:28:33.390Z,100.00
2024-04-22T18:31:03.183Z,100.00
2024-04-22T18:33:30.350Z,100.00
2024-04-22T18:36:00.994Z,100.00
2024-04-22T18:38:29.296Z,100.00
2024-04-22T18:41:01.847Z,100.00
2024-04-22T18:43:29.211Z,100.00
2024-04-22T18:45:59.016Z,100.00
2024-04-22T18:48:26.251Z,100.00
2024-04-22T18:50:58.836Z,100.00
2024-04-22T18:53:26.108Z,100.00
2024-04-22T18:56:03.967Z,100.00
2024-04-22T18:58:32.539Z,100.00
2024-04-22T19:01:02.513Z,100.00
2024-04-22T19:03:29.833Z,100.00
2024-04-22T19:05:59.681Z,100.00
2024-04-22T19:08:26.861Z,100.00
2024-04-22T19:10:57.043Z,100.00
2024-04-22T19:13:27.010Z,100.00
2024-04-22T19:15:56.798Z,100.00
2024-04-22T19:18:25.159Z,100.00
2024-04-22T19:20:55.062Z,100.00
2024-04-22T19:23:22.298Z,100.00
2024-04-22T19:25:52.154Z,100.00
2024-04-22T19:28:19.470Z,100.00
2024-04-22T19:30:54.045Z,100.00
2024-04-22T19:33:21.272Z,100.00
2024-04-22T19:35:53.985Z,100.00
2024-04-22T19:38:21.152Z,100.00
2024-04-22T19:40:51.064Z,100.00
2024-04-22T19:43:18.809Z,100.00
2024-04-22T19:45:51.298Z,100.00
2024-04-22T19:48:18.526Z,100.00
2024-04-22T19:50:48.761Z,100.00
2024-04-22T19:53:16.018Z,100.00
2024-04-22T19:56:07.657Z,100.00
2024-04-22T19:58:35.568Z,100.00
2024-04-22T20:01:08.310Z,100.00
2024-04-22T20:03:35.807Z,100.00
2024-04-22T20:06:05.815Z,100.00
2024-04-22T20:08:33.274Z,100.00
2024-04-22T20:11:07.336Z,100.00
2024-04-22T20:13:34.603Z,100.00
2024-04-22T20:16:16.117Z,100.00
2024-04-22T20:18:54.572Z,100.00
2024-04-22T20:21:24.475Z,100.00
2024-04-22T20:23:51.963Z,100.00
2024-04-22T20:26:21.718Z,100.00
2024-04-22T20:28:51.723Z,100.00
2024-04-22T20:31:24.394Z,100.00
2024-04-22T20:33:51.880Z,100.00
2024-04-22T20:36:23.704Z,100.00
2024-04-22T20:38:50.843Z,100.00
2024-04-22T20:41:20.663Z,100.00
2024-04-22T20:43:47.837Z,100.00
2024-04-22T20:46:17.665Z,100.00
2024-04-22T20:48:47.410Z,100.00
2024-04-22T20:51:17.314Z,100.00
2024-04-22T20:53:44.465Z,100.00
2024-04-22T20:56:14.301Z,100.00
2024-04-22T20:58:41.600Z,100.00
2024-04-22T21:01:12.466Z,100.00
2024-04-22T21:03:39.888Z,100.00
2024-04-22T21:06:12.355Z,100.00
2024-04-22T21:08:39.522Z,100.00
2024-04-22T21:11:09.487Z,100.00
2024-04-22T21:13:43.100Z,100.00
2024-04-22T21:16:13.349Z,100.00
2024-04-22T21:18:40.736Z,100.00
2024-04-22T21:21:13.226Z,100.00
2024-04-22T21:23:40.469Z,100.00
2024-04-22T21:26:10.278Z,100.00
2024-04-22T21:28:37.736Z,100.00
2024-04-22T21:31:09.329Z,100.00
2024-04-22T21:33:50.777Z,100.00
2024-04-22T21:36:28.901Z,100.00
2024-04-22T21:38:56.040Z,100.00
2024-04-22T21:41:27.038Z,100.00
2024-04-22T21:43:54.342Z,100.00
2024-04-22T21:46:24.266Z,100.00
2024-04-22T21:48:51.507Z,100.00
2024-04-22T21:51:21.408Z,100.00
2024-04-22T21:53:51.314Z,100.00
2024-04-22T21:56:21.172Z,100.00
2024-04-22T21:59:28.395Z,100.00
2024-04-22T22:02:32.855Z,100.00
2024-04-22T22:05:40.086Z,100.00
2024-04-22T22:08:10.307Z,100.00
2024-04-22T22:10:44.430Z,100.00
2024-04-22T22:13:11.409Z,100.00
2024-04-22T22:15:41.399Z,100.00
2024-04-22T22:18:09.254Z,100.00
2024-04-22T22:20:39.400Z,100.00
2024-04-22T22:23:06.630Z,100.00
2024-04-22T22:25:36.468Z,100.00
2024-04-22T22:28:07.062Z,100.00
2024-04-22T22:30:36.884Z,100.00
2024-04-22T22:33:04.200Z,100.00
2024-04-22T22:35:33.992Z,100.00
2024-04-22T22:38:01.175Z,100.00
2024-04-22T22:40:30.966Z,100.00
2024-04-22T22:42:58.175Z,100.00
2024-04-22T22:45:31.311Z,100.00
2024-04-22T22:47:58.704Z,100.00
2024-04-22T22:50:28.579Z,100.00
2024-04-22T22:52:55.792Z,100.00
2024-04-22T22:55:25.655Z,100.00
2024-04-22T22:57:52.823Z,100.00
2024-04-22T23:00:22.630Z,100.00
2024-04-22T23:02:52.595Z,100.00
2024-04-22T23:05:22.401Z,100.00
2024-04-22T23:07:49.681Z,100.00
2024-04-22T23:10:19.483Z,100.00
2024-04-22T23:12:46.655Z,100.00
2024-04-22T23:15:16.616Z,100.00
2024-04-22T23:17:43.748Z,100.00
2024-04-22T23:20:16.253Z,100.00
2024-04-22T23:22:43.591Z,100.00
2024-04-22T23:25:13.491Z,100.00
2024-04-22T23:27:41.873Z,100.00
2024-04-22T23:30:12.320Z,100.00
2024-04-22T23:32:39.498Z,100.00
2024-04-22T23:35:09.894Z,100.00
2024-04-22T23:37:39.823Z,100.00
2024-04-22T23:40:10.676Z,100.00
2024-04-22T23:42:37.800Z,100.00
2024-04-22T23:45:08.270Z,100.00
2024-04-22T23:47:54.490Z,100.00
2024-04-22T23:50:24.419Z,100.00
2024-04-22T23:52:54.525Z,100.00
2024-04-22T23:55:24.332Z,100.00
2024-04-22T23:57:51.512Z,100.00
